Time;durP1;ratioP1;P1;durP2;ratioP2;P2;SDS_P1;SDS_P2;PMS_P1;PMS_P2;Temp;Humidity;BMP_temperature;BMP_pressure;BME280_temperature;BME280_humidity;BME280_pressure;Samples;Min_cycle;Max_cycle;Signal;HPM_P1;HPM_P2
2022/03/11 00:01:33;;;;;;;5.70;2.28;;;18.30;54.20;;;;;;5016572;28;20029;-57
2022/03/11 00:03:58;;;;;;;5.68;2.50;;;18.20;54.20;;;;;;5019205;28;20045;-57
2022/03/11 00:06:24;;;;;;;5.35;2.10;;;18.20;54.20;;;;;;5023329;28;20117;-57
2022/03/11 00:08:51;;;;;;;4.45;2.20;;;18.20;54.20;;;;;;5018007;28;20039;-57
2022/03/11 00:11:17;;;;;;;3.78;2.28;;;18.20;54.40;;;;;;5016063;28;20090;-57
2022/03/11 00:13:42;;;;;;;3.17;1.90;;;18.20;54.40;;;;;;5029438;28;20495;-57
2022/03/11 00:16:08;;;;;;;4.05;2.10;;;18.20;54.40;;;;;;5019240;28;20057;-57
2022/03/11 00:18:34;;;;;;;4.30;2.17;;;18.20;54.40;;;;;;5019150;28;20030;-57
2022/03/11 00:20:59;;;;;;;4.32;2.20;;;18.10;54.40;;;;;;5019024;28;20033;-57
2022/03/11 00:23:25;;;;;;;3.88;2.10;;;18.10;54.40;;;;;;5017042;28;20100;-57
2022/03/11 00:25:51;;;;;;;4.25;2.03;;;18.10;54.50;;;;;;5016802;28;20402;-57
2022/03/11 00:28:17;;;;;;;5.68;2.45;;;18.10;54.60;;;;;;5017767;28;20022;-57
2022/03/11 00:30:43;;;;;;;4.72;2.05;;;18.10;54.60;;;;;;5026165;28;20033;-57
2022/03/11 00:33:09;;;;;;;5.65;2.20;;;18.10;54.60;;;;;;5025962;28;20048;-58
2022/03/11 00:35:35;;;;;;;4.50;2.10;;;18.10;54.70;;;;;;5018154;28;20056;-57
2022/03/11 00:38:01;;;;;;;3.72;1.90;;;18.00;54.70;;;;;;5013211;28;20037;-57
2022/03/11 00:40:27;;;;;;;5.63;1.88;;;18.10;54.70;;;;;;5016676;28;20042;-57
2022/03/11 00:42:53;;;;;;;3.95;1.90;;;18.00;54.70;;;;;;5027300;28;20033;-57
2022/03/11 00:45:18;;;;;;;4.35;2.00;;;18.00;54.80;;;;;;5023443;28;20049;-57
2022/03/11 00:47:44;;;;;;;5.80;2.10;;;18.00;54.70;;;;;;5018645;28;20076;-58
2022/03/11 00:50:10;;;;;;;4.20;2.15;;;18.00;54.80;;;;;;5022976;28;20525;-57
2022/03/11 00:52:36;;;;;;;5.82;2.08;;;18.00;54.80;;;;;;5014032;28;20395;-57
2022/03/11 00:55:03;;;;;;;4.97;2.08;;;18.00;54.80;;;;;;5018500;28;20030;-57
2022/03/11 00:57:28;;;;;;;4.00;1.95;;;18.00;54.90;;;;;;5018042;28;20678;-57
2022/03/11 00:59:54;;;;;;;3.88;1.80;;;18.00;54.90;;;;;;5018447;28;20108;-57
2022/03/11 01:02:20;;;;;;;3.60;1.70;;;17.90;54.90;;;;;;5021668;28;20493;-57
2022/03/11 01:04:48;;;;;;;3.22;1.80;;;17.90;54.90;;;;;;5013606;28;20548;-58
2022/03/11 01:07:14;;;;;;;3.17;1.83;;;18.00;55.00;;;;;;5030188;28;20078;-57
2022/03/11 01:09:40;;;;;;;3.58;1.70;;;17.90;55.00;;;;;;5021363;28;20030;-57
2022/03/11 01:12:06;;;;;;;3.55;1.83;;;18.00;55.10;;;;;;5017751;28;20029;-57
2022/03/11 01:14:31;;;;;;;5.18;1.80;;;17.90;55.00;;;;;;5016780;28;20022;-57
2022/03/11 01:16:57;;;;;;;4.15;1.80;;;17.90;55.00;;;;;;5013216;28;20100;-57
2022/03/11 01:19:23;;;;;;;2.75;1.65;;;17.90;55.00;;;;;;5028701;28;20018;-57
2022/03/11 01:21:49;;;;;;;4.38;2.05;;;17.90;55.20;;;;;;5019721;28;20038;-58
2022/03/11 01:24:15;;;;;;;4.50;1.90;;;17.90;55.20;;;;;;5023383;28;20033;-57
2022/03/11 01:26:40;;;;;;;3.33;1.70;;;17.80;55.10;;;;;;5017651;28;20514;-57
2022/03/11 01:29:06;;;;;;;3.35;1.77;;;17.80;55.20;;;;;;5013405;28;20078;-57
2022/03/11 01:31:31;;;;;;;5.93;1.83;;;17.80;55.20;;;;;;5015063;28;20156;-57
2022/03/11 01:33:57;;;;;;;3.97;1.83;;;17.80;55.20;;;;;;5023786;28;20111;-58
2022/03/11 01:36:23;;;;;;;3.47;1.80;;;17.80;55.20;;;;;;5023042;28;20065;-57
2022/03/11 01:38:48;;;;;;;3.00;1.65;;;17.80;55.30;;;;;;5021815;28;20394;-57
2022/03/11 01:41:14;;;;;;;3.83;1.73;;;17.80;55.40;;;;;;5028118;28;20057;-57
2022/03/11 01:43:53;;;;;;;3.28;1.60;;;17.80;55.40;;;;;;5013376;28;20018;-57
2022/03/11 01:46:19;;;;;;;3.67;1.77;;;17.80;55.40;;;;;;5014593;28;20053;-57
2022/03/11 01:48:45;;;;;;;2.70;1.70;;;17.80;55.50;;;;;;5024565;28;20057;-57
2022/03/11 01:51:10;;;;;;;4.13;1.80;;;17.80;55.40;;;;;;5022458;28;20406;-58
2022/03/11 01:53:36;;;;;;;3.13;1.70;;;17.80;55.50;;;;;;5016600;28;20065;-57
2022/03/11 01:56:03;;;;;;;3.10;1.60;;;17.70;55.50;;;;;;5028059;28;20037;-57
2022/03/11 01:58:28;;;;;;;2.85;1.70;;;17.70;55.50;;;;;;5046776;28;20022;-58
2022/03/11 02:00:54;;;;;;;2.75;1.42;;;17.70;55.60;;;;;;5015881;28;20109;-57
2022/03/11 02:03:19;;;;;;;3.33;1.70;;;17.70;55.60;;;;;;5016914;28;20030;-57
2022/03/11 02:05:45;;;;;;;2.85;1.50;;;17.70;55.60;;;;;;5016198;28;20044;-57
2022/03/11 02:08:11;;;;;;;2.70;1.50;;;17.70;55.60;;;;;;5027414;28;20049;-57
2022/03/11 02:10:36;;;;;;;3.05;1.38;;;17.70;55.70;;;;;;5018832;28;20098;-57
2022/03/11 02:13:06;;;;;;;3.05;1.50;;;17.70;55.70;;;;;;5016976;28;20116;-57
2022/03/11 02:15:32;;;;;;;3.25;1.58;;;17.70;55.70;;;;;;5016711;28;20522;-57
2022/03/11 02:17:57;;;;;;;3.15;1.60;;;17.70;55.70;;;;;;5017786;28;20029;-57
2022/03/11 02:20:23;;;;;;;3.20;1.50;;;17.60;55.80;;;;;;5028320;28;20402;-57
2022/03/11 02:22:50;;;;;;;3.33;1.58;;;17.60;55.70;;;;;;5011942;28;20041;-57
2022/03/11 02:25:16;;;;;;;2.80;1.50;;;17.60;55.80;;;;;;5014916;28;20506;-57
2022/03/11 02:27:42;;;;;;;3.15;1.60;;;17.60;55.90;;;;;;5021515;28;20040;-57
2022/03/11 02:30:13;;;;;;;4.28;1.50;;;17.60;55.80;;;;;;5024173;28;20045;-57
2022/03/11 02:32:39;;;;;;;3.15;1.52;;;17.60;55.90;;;;;;5016475;28;20172;-57
2022/03/11 02:35:06;;;;;;;2.95;1.50;;;17.60;55.90;;;;;;5010917;28;20802;-57
2022/03/11 02:37:31;;;;;;;3.33;1.20;;;17.60;55.90;;;;;;5013754;28;20021;-57
2022/03/11 02:39:57;;;;;;;2.90;1.50;;;17.60;55.90;;;;;;5021092;28;20470;-57
2022/03/11 02:42:23;;;;;;;3.42;1.40;;;17.60;56.00;;;;;;5022077;28;20442;-57
2022/03/11 02:44:48;;;;;;;2.67;1.55;;;17.60;56.00;;;;;;5018941;28;20486;-57
2022/03/11 02:47:14;;;;;;;2.92;1.50;;;17.50;56.00;;;;;;5012007;28;20441;-57
2022/03/11 02:49:40;;;;;;;3.53;1.50;;;17.50;56.00;;;;;;5028697;28;20052;-57
2022/03/11 02:52:06;;;;;;;3.58;1.60;;;17.50;57.00;;;;;;5016504;28;20056;-57
2022/03/11 02:54:31;;;;;;;1.95;1.42;;;17.50;56.10;;;;;;5016344;28;20111;-57
2022/03/11 02:56:57;;;;;;;2.88;1.42;;;17.50;56.00;;;;;;5015322;28;20039;-57
2022/03/11 02:59:22;;;;;;;2.90;1.50;;;17.50;56.10;;;;;;5014078;28;20060;-57
2022/03/11 03:01:48;;;;;;;4.32;1.35;;;17.50;56.10;;;;;;5020167;28;20013;-57
2022/03/11 03:04:14;;;;;;;2.78;1.30;;;17.50;56.10;;;;;;5019842;28;20072;-57
2022/03/11 03:06:40;;;;;;;2.53;1.33;;;17.50;56.20;;;;;;5019981;28;20418;-57
2022/03/11 03:09:05;;;;;;;3.22;1.30;;;17.50;56.20;;;;;;5020362;28;20061;-57
2022/03/11 03:11:31;;;;;;;4.25;1.50;;;17.50;56.20;;;;;;5019156;28;20018;-57
2022/03/11 03:13:57;;;;;;;2.25;1.40;;;17.50;56.20;;;;;;5019463;28;20021;-57
2022/03/11 03:16:22;;;;;;;2.45;1.35;;;17.50;56.30;;;;;;5031227;28;20025;-57
2022/03/11 03:18:48;;;;;;;3.33;1.38;;;17.50;56.30;;;;;;5022328;28;20034;-57
2022/03/11 03:21:13;;;;;;;2.83;1.25;;;17.40;56.30;;;;;;5019712;28;20109;-57
2022/03/11 03:23:39;;;;;;;2.83;1.35;;;17.40;56.30;;;;;;5020013;28;20045;-58
2022/03/11 03:26:05;;;;;;;3.97;1.50;;;17.50;56.40;;;;;;5022142;28;20041;-57
2022/03/11 03:28:30;;;;;;;3.40;1.33;;;17.40;56.30;;;;;;5017523;28;20029;-57
2022/03/11 03:30:56;;;;;;;1.67;1.13;;;17.40;56.40;;;;;;5028997;28;20037;-57
2022/03/11 03:33:22;;;;;;;3.13;1.45;;;17.40;56.40;;;;;;5025539;28;20065;-57
2022/03/11 03:35:47;;;;;;;2.47;1.33;;;17.40;56.50;;;;;;5028460;28;20466;-57
2022/03/11 03:38:13;;;;;;;2.40;1.27;;;17.40;56.50;;;;;;5016225;28;20112;-57
2022/03/11 03:40:39;;;;;;;1.85;1.20;;;17.40;56.50;;;;;;5018289;28;20506;-57
2022/03/11 03:43:04;;;;;;;2.88;1.30;;;17.40;56.60;;;;;;5031438;28;20048;-57
2022/03/11 03:45:33;;;;;;;2.38;1.20;;;17.40;56.60;;;;;;5024054;28;20108;-57
2022/03/11 03:48:00;;;;;;;2.30;1.30;;;17.40;56.70;;;;;;5029026;28;20057;-57
2022/03/11 03:50:29;;;;;;;2.50;1.27;;;17.40;56.70;;;;;;5030501;28;20091;-57
2022/03/11 03:52:55;;;;;;;1.92;1.10;;;17.40;56.80;;;;;;5030653;28;20061;-58
2022/03/11 03:55:20;;;;;;;2.35;1.25;;;17.30;56.70;;;;;;5018567;28;20048;-58
2022/03/11 03:57:46;;;;;;;2.08;1.40;;;17.40;56.70;;;;;;5019607;28;20033;-57
2022/03/11 04:00:12;;;;;;;2.63;1.30;;;17.30;56.70;;;;;;5019516;28;20034;-57
2022/03/11 04:02:46;;;;;;;2.10;1.30;;;17.30;56.70;;;;;;5026642;28;20516;-57
2022/03/11 04:05:13;;;;;;;2.42;1.20;;;17.30;56.80;;;;;;5023580;28;20037;-57
2022/03/11 04:07:40;;;;;;;3.03;1.30;;;17.30;56.70;;;;;;5016758;28;20022;-57
2022/03/11 04:10:06;;;;;;;2.25;1.35;;;17.30;56.80;;;;;;5031029;28;20074;-57
2022/03/11 04:12:32;;;;;;;1.55;1.20;;;17.30;56.80;;;;;;5023333;28;20028;-57
2022/03/11 04:14:58;;;;;;;2.78;1.40;;;17.30;56.80;;;;;;5019209;28;20033;-57
2022/03/11 04:17:23;;;;;;;2.33;1.20;;;17.30;56.90;;;;;;5023471;28;20486;-57
2022/03/11 04:19:49;;;;;;;2.33;1.30;;;17.30;56.90;;;;;;5014354;28;20471;-58
2022/03/11 04:22:15;;;;;;;1.70;1.20;;;17.30;56.90;;;;;;5023790;28;20040;-57
2022/03/11 04:24:41;;;;;;;3.35;1.30;;;17.30;56.90;;;;;;5025642;28;20037;-57
2022/03/11 04:27:06;;;;;;;2.75;1.20;;;17.30;56.90;;;;;;5026840;28;20022;-57
2022/03/11 04:29:32;;;;;;;1.92;1.27;;;17.30;56.90;;;;;;5017761;28;20681;-57
2022/03/11 04:31:58;;;;;;;3.25;1.20;;;17.30;57.00;;;;;;5014314;28;20026;-57
2022/03/11 04:34:25;;;;;;;1.20;1.10;;;17.30;56.90;;;;;;5017115;28;20030;-57
2022/03/11 04:36:51;;;;;;;2.03;1.20;;;17.20;56.90;;;;;;5023653;28;20060;-57
2022/03/11 04:39:17;;;;;;;2.55;1.40;;;17.30;57.00;;;;;;5023923;28;20116;-57
2022/03/11 04:41:44;;;;;;;1.65;1.15;;;17.30;57.00;;;;;;5018433;28;20067;-57
2022/03/11 04:44:09;;;;;;;2.65;1.23;;;17.20;58.00;;;;;;5029813;28;20037;-57
2022/03/11 04:46:35;;;;;;;3.25;1.50;;;17.20;57.10;;;;;;5022196;28;20029;-58
2022/03/11 04:49:00;;;;;;;2.00;1.20;;;17.20;57.00;;;;;;5018280;28;20160;-57
2022/03/11 04:51:26;;;;;;;1.90;1.30;;;17.20;57.10;;;;;;5018619;28;20037;-57
2022/03/11 04:53:52;;;;;;;2.13;1.20;;;17.20;57.10;;;;;;5017210;28;20021;-57
2022/03/11 04:56:19;;;;;;;1.80;1.20;;;17.20;57.10;;;;;;5027593;28;20033;-57
2022/03/11 04:58:44;;;;;;;1.33;1.10;;;17.20;57.10;;;;;;5022811;28;20402;-57
2022/03/11 05:01:10;;;;;;;1.83;1.20;;;17.20;57.20;;;;;;5026402;28;20033;-58
2022/03/11 05:03:36;;;;;;;2.80;1.27;;;17.20;57.20;;;;;;5021616;28;20474;-57
2022/03/11 05:06:01;;;;;;;2.80;1.40;;;17.20;57.20;;;;;;5017914;28;20042;-57
2022/03/11 05:08:27;;;;;;;1.98;1.20;;;17.20;57.10;;;;;;5016484;28;20059;-57
2022/03/11 05:10:52;;;;;;;2.13;1.13;;;17.20;57.20;;;;;;5013665;28;20030;-57
2022/03/11 05:13:18;;;;;;;2.60;1.30;;;17.20;57.20;;;;;;5029655;28;20506;-57
2022/03/11 05:15:44;;;;;;;1.83;1.20;;;17.20;57.20;;;;;;5020813;28;20037;-57
2022/03/11 05:18:11;;;;;;;2.10;1.40;;;17.20;57.30;;;;;;5022371;28;20110;-57
2022/03/11 05:20:37;;;;;;;3.15;1.27;;;17.10;57.30;;;;;;5025683;28;20082;-57
2022/03/11 05:23:03;;;;;;;2.10;1.23;;;17.10;57.40;;;;;;5012698;28;20536;-57
2022/03/11 05:25:29;;;;;;;1.90;1.17;;;17.10;57.30;;;;;;5015767;28;20046;-57
2022/03/11 05:27:54;;;;;;;2.25;1.30;;;17.10;57.30;;;;;;5017662;28;20037;-58
2022/03/11 05:30:20;;;;;;;2.45;1.50;;;17.10;57.30;;;;;;5022647;28;20040;-57
2022/03/11 05:32:49;;;;;;;2.60;1.38;;;17.10;57.40;;;;;;5028037;28;20030;-57
2022/03/11 05:35:14;;;;;;;2.45;1.60;;;17.10;57.50;;;;;;5027236;28;20030;-57
2022/03/11 05:37:40;;;;;;;2.90;1.30;;;17.10;57.50;;;;;;5013651;28;20026;-57
2022/03/11 05:40:07;;;;;;;4.25;1.40;;;17.10;57.50;;;;;;5017769;28;20050;-57
2022/03/11 05:42:32;;;;;;;2.72;1.25;;;17.10;57.50;;;;;;5023865;28;20025;-57
2022/03/11 05:44:58;;;;;;;2.20;1.20;;;17.10;57.60;;;;;;5026500;28;20203;-57
2022/03/11 05:47:23;;;;;;;3.03;1.30;;;17.10;57.50;;;;;;5014987;28;20034;-57
2022/03/11 05:49:49;;;;;;;1.70;1.27;;;17.10;57.50;;;;;;5012546;28;20040;-58
2022/03/11 05:52:15;;;;;;;3.03;1.50;;;17.10;57.60;;;;;;5028994;28;20034;-57
2022/03/11 05:54:40;;;;;;;1.88;1.02;;;17.10;57.60;;;;;;5020213;28;20509;-57
2022/03/11 05:57:06;;;;;;;3.17;1.30;;;17.10;57.70;;;;;;5017470;28;20608;-57
2022/03/11 05:59:32;;;;;;;2.70;1.20;;;17.10;57.80;;;;;;5016107;28;20712;-57
2022/03/11 06:01:58;;;;;;;2.63;1.23;;;17.10;57.90;;;;;;5012276;28;20026;-57
2022/03/11 06:04:24;;;;;;;1.77;1.30;;;17.00;57.90;;;;;;5015962;28;20038;-57
2022/03/11 06:06:49;;;;;;;2.20;1.30;;;17.00;58.00;;;;;;5018097;28;20258;-57
2022/03/11 06:09:15;;;;;;;5.45;1.40;;;17.00;58.10;;;;;;5023872;28;20034;-57
2022/03/11 06:11:41;;;;;;;4.90;1.60;;;17.10;58.30;;;;;;5007381;28;20536;-58
2022/03/11 06:14:07;;;;;;;2.00;1.40;;;17.00;58.20;;;;;;5025831;28;20072;-57
2022/03/11 06:16:33;;;;;;;3.85;1.40;;;17.00;58.30;;;;;;5025594;28;20541;-57
2022/03/11 06:18:59;;;;;;;2.80;1.40;;;17.00;58.40;;;;;;5023796;28;20033;-57
2022/03/11 06:21:25;;;;;;;5.95;1.92;;;17.00;58.50;;;;;;5024349;28;20029;-60
2022/03/11 06:23:52;;;;;;;7.20;2.13;;;17.00;59.80;;;;;;5014362;28;20128;-59
2022/03/11 06:26:18;;;;;;;5.70;1.80;;;17.00;60.40;;;;;;5015286;28;20116;-59
2022/03/11 06:28:43;;;;;;;5.22;1.70;;;17.10;60.50;;;;;;5026873;28;20032;-59
2022/03/11 06:31:11;;;;;;;6.82;1.70;;;17.10;60.50;;;;;;5014475;28;20030;-61
2022/03/11 06:33:37;;;;;;;8.07;1.80;;;17.10;60.60;;;;;;5014619;28;20113;-59
2022/03/11 06:36:03;;;;;;;4.53;1.52;;;17.10;60.70;;;;;;5016224;28;20058;-59
2022/03/11 06:38:28;;;;;;;5.95;2.08;;;17.10;60.70;;;;;;5016807;28;20026;-60
2022/03/11 06:40:55;;;;;;;5.20;1.70;;;17.00;60.80;;;;;;5015717;28;20057;-59
2022/03/11 06:43:22;;;;;;;4.72;1.80;;;17.10;60.90;;;;;;5030761;28;20120;-59
2022/03/11 06:45:50;;;;;;;3.95;1.90;;;17.00;60.80;;;;;;5020206;28;20080;-59
2022/03/11 06:48:18;;;;;;;4.03;1.60;;;17.00;61.00;;;;;;5018486;28;20033;-60
2022/03/11 06:50:44;;;;;;;5.75;1.73;;;17.00;61.10;;;;;;5019360;28;20075;-59
2022/03/11 06:53:10;;;;;;;5.57;1.83;;;17.00;60.90;;;;;;5014250;28;20469;-60
2022/03/11 06:55:35;;;;;;;7.03;1.80;;;17.00;61.50;;;;;;5033343;28;20021;-59
2022/03/11 06:58:01;;;;;;;5.82;1.85;;;17.00;61.30;;;;;;5027776;28;20029;-59
2022/03/11 07:00:27;;;;;;;4.88;1.75;;;17.00;61.20;;;;;;5024182;28;20038;-59
2022/03/11 07:02:53;;;;;;;3.72;1.73;;;17.00;61.00;;;;;;5024775;28;20017;-60
2022/03/11 07:05:18;;;;;;;6.85;1.80;;;17.00;61.40;;;;;;5016894;28;20509;-60
2022/03/11 07:07:45;;;;;;;6.43;2.13;;;17.00;61.10;;;;;;5016464;28;20038;-59
2022/03/11 07:10:11;;;;;;;4.88;1.70;;;17.00;61.20;;;;;;5020337;28;20514;-59
2022/03/11 07:12:36;;;;;;;3.38;1.70;;;17.00;61.10;;;;;;5020245;28;20103;-60
2022/03/11 07:15:02;;;;;;;4.13;1.60;;;16.90;61.00;;;;;;5020608;28;20046;-59
2022/03/11 07:17:28;;;;;;;5.30;1.80;;;16.90;61.00;;;;;;5018633;28;20026;-59
2022/03/11 07:19:54;;;;;;;4.97;1.90;;;17.00;61.00;;;;;;5017743;28;20584;-59
2022/03/11 07:22:20;;;;;;;6.10;1.60;;;16.90;60.90;;;;;;5017413;28;20022;-59
2022/03/11 07:24:45;;;;;;;3.70;1.60;;;16.90;60.90;;;;;;5020248;28;20046;-59
2022/03/11 07:27:15;;;;;;;5.78;1.90;;;16.90;61.10;;;;;;5019966;28;20104;-59
2022/03/11 07:29:40;;;;;;;3.85;1.60;;;16.90;61.10;;;;;;5020151;28;20171;-59
2022/03/11 07:32:08;;;;;;;2.92;1.50;;;16.90;61.20;;;;;;5015494;28;20128;-59
2022/03/11 07:34:34;;;;;;;4.72;1.63;;;16.90;61.10;;;;;;5017228;28;20018;-59
2022/03/11 07:37:00;;;;;;;4.80;1.60;;;16.90;61.10;;;;;;5029939;28;20490;-59
2022/03/11 07:39:25;;;;;;;4.78;1.60;;;16.90;61.10;;;;;;5025269;28;20033;-60
2022/03/11 07:41:51;;;;;;;3.50;1.60;;;16.90;61.20;;;;;;5015320;28;20490;-59
2022/03/11 07:44:17;;;;;;;3.35;1.60;;;16.90;60.90;;;;;;5031276;28;20044;-59
2022/03/11 07:46:43;;;;;;;4.15;1.58;;;16.90;61.10;;;;;;5015257;28;20025;-59
2022/03/11 07:49:09;;;;;;;2.72;1.50;;;16.80;60.90;;;;;;5020288;28;20113;-60
2022/03/11 07:51:34;;;;;;;5.70;1.40;;;16.80;60.90;;;;;;5019800;28;20133;-59
2022/03/11 07:54:00;;;;;;;5.93;1.60;;;16.90;61.10;;;;;;5019878;28;20487;-59
2022/03/11 07:56:26;;;;;;;4.13;1.65;;;16.80;60.90;;;;;;5027253;28;20029;-59
2022/03/11 07:58:54;;;;;;;4.20;1.48;;;16.80;60.90;;;;;;5015096;28;20026;-59
2022/03/11 08:01:19;;;;;;;4.38;1.58;;;16.80;60.80;;;;;;5016687;28;20026;-59
2022/03/11 08:03:45;;;;;;;3.25;1.58;;;16.80;60.90;;;;;;5019607;28;20142;-59
2022/03/11 08:06:11;;;;;;;2.88;1.42;;;16.80;61.00;;;;;;5019488;28;20032;-59
2022/03/11 08:08:37;;;;;;;2.78;1.42;;;16.80;60.80;;;;;;5018812;28;20025;-59
2022/03/11 08:11:04;;;;;;;3.65;1.60;;;16.80;60.90;;;;;;5013819;28;20041;-59
2022/03/11 08:13:30;;;;;;;5.30;1.73;;;16.80;60.90;;;;;;5027576;28;20573;-59
2022/03/11 08:15:55;;;;;;;5.82;1.60;;;16.80;60.90;;;;;;5020721;28;20048;-59
2022/03/11 08:18:21;;;;;;;3.72;1.40;;;16.80;60.80;;;;;;5019398;28;20437;-59
2022/03/11 08:20:47;;;;;;;5.75;1.60;;;16.80;60.90;;;;;;5019249;28;20144;-59
2022/03/11 08:23:13;;;;;;;3.78;1.35;;;16.80;61.00;;;;;;5015250;28;20033;-59
2022/03/11 08:25:39;;;;;;;3.90;1.35;;;16.80;60.90;;;;;;5015478;28;20045;-59
2022/03/11 08:28:07;;;;;;;4.13;1.50;;;16.80;60.80;;;;;;5028092;28;20680;-59
2022/03/11 08:30:34;;;;;;;3.20;1.50;;;16.80;60.80;;;;;;5023282;28;20037;-59
2022/03/11 08:32:59;;;;;;;3.95;1.50;;;16.80;60.80;;;;;;5018877;28;20032;-59
2022/03/11 08:35:25;;;;;;;5.00;1.42;;;16.70;60.90;;;;;;5016711;28;20034;-59
2022/03/11 08:37:51;;;;;;;2.55;1.40;;;16.70;60.80;;;;;;5014539;28;20101;-59
2022/03/11 08:40:17;;;;;;;5.07;1.40;;;16.80;61.00;;;;;;5017915;28;20442;-59
2022/03/11 08:42:43;;;;;;;3.22;1.48;;;16.80;60.80;;;;;;5021043;28;20686;-59
2022/03/11 08:45:10;;;;;;;3.40;1.27;;;16.80;60.80;;;;;;5057425;28;20046;-59
2022/03/11 08:47:35;;;;;;;5.22;1.60;;;16.70;61.00;;;;;;5016681;28;20108;-59
2022/03/11 08:50:04;;;;;;;3.60;1.38;;;16.70;60.80;;;;;;5029940;28;20108;-59
2022/03/11 08:52:30;;;;;;;4.30;1.63;;;16.70;60.80;;;;;;5016330;28;20132;-59
2022/03/11 08:54:56;;;;;;;2.20;1.25;;;16.70;60.90;;;;;;5018246;28;20030;-59
2022/03/11 08:57:23;;;;;;;2.72;1.33;;;16.70;60.80;;;;;;5018430;28;20165;-59
2022/03/11 08:59:48;;;;;;;3.50;1.35;;;16.70;60.80;;;;;;5018020;28;20026;-59
2022/03/11 09:02:15;;;;;;;2.45;1.30;;;16.70;60.90;;;;;;5014683;28;20429;-59
2022/03/11 09:04:41;;;;;;;3.72;1.52;;;16.70;60.90;;;;;;5014493;28;20119;-59
2022/03/11 09:07:06;;;;;;;2.85;1.27;;;16.70;60.80;;;;;;5020231;28;20029;-59
2022/03/11 09:09:32;;;;;;;3.78;1.27;;;16.70;60.80;;;;;;5022398;28;20038;-59
2022/03/11 09:11:58;;;;;;;2.97;1.35;;;16.70;60.80;;;;;;5018235;28;20021;-59
2022/03/11 09:14:24;;;;;;;3.75;1.63;;;16.70;60.80;;;;;;5015167;28;20033;-59
2022/03/11 09:16:50;;;;;;;2.63;1.33;;;16.70;60.80;;;;;;5013486;28;20503;-59
2022/03/11 09:19:16;;;;;;;3.10;1.38;;;16.70;60.80;;;;;;5017535;28;20041;-59
2022/03/11 09:21:42;;;;;;;4.60;1.30;;;16.70;60.90;;;;;;5017987;28;20560;-59
2022/03/11 09:24:07;;;;;;;2.78;1.20;;;16.70;60.90;;;;;;5017412;28;20050;-59
2022/03/11 09:26:33;;;;;;;3.35;1.20;;;16.70;60.80;;;;;;5024863;28;20060;-59
2022/03/11 09:28:59;;;;;;;4.18;1.45;;;16.70;60.80;;;;;;5013143;28;20084;-59
2022/03/11 09:31:25;;;;;;;3.13;1.35;;;16.70;60.90;;;;;;5016532;28;20029;-59
2022/03/11 09:33:50;;;;;;;2.72;1.30;;;16.70;60.70;;;;;;5018027;28;20044;-59
2022/03/11 09:36:16;;;;;;;2.83;1.20;;;16.70;60.80;;;;;;5017179;28;20025;-59
2022/03/11 09:38:42;;;;;;;3.58;1.30;;;16.70;60.80;;;;;;5030007;28;20100;-59
2022/03/11 09:41:07;;;;;;;3.35;1.25;;;16.70;60.70;;;;;;5028855;28;20049;-59
2022/03/11 09:43:36;;;;;;;2.65;1.27;;;16.70;60.70;;;;;;5029851;28;20053;-59
2022/03/11 09:46:02;;;;;;;3.20;1.20;;;16.70;60.80;;;;;;5018002;28;20483;-59
2022/03/11 09:48:28;;;;;;;2.47;1.10;;;16.70;60.80;;;;;;5018349;28;20513;-59
2022/03/11 09:50:54;;;;;;;5.30;1.55;;;16.70;61.30;;;;;;5027075;28;20033;-59
2022/03/11 09:53:19;;;;;;;3.65;1.30;;;16.70;61.80;;;;;;5021471;28;20506;-59
2022/03/11 09:55:48;;;;;;;3.28;1.30;;;16.70;62.00;;;;;;5035148;28;20036;-59
2022/03/11 09:58:14;;;;;;;3.30;1.17;;;16.80;62.10;;;;;;5031242;28;20033;-59
2022/03/11 10:00:40;;;;;;;3.47;1.20;;;16.80;61.90;;;;;;5025136;28;20113;-59
2022/03/11 10:03:07;;;;;;;2.28;1.15;;;16.70;62.00;;;;;;5056946;28;20026;-59
2022/03/11 10:05:54;;;;;;;2.35;1.50;;;16.70;61.90;;;;;;5017522;28;20037;-59
2022/03/11 10:08:50;;;;;;;4.00;1.65;;;16.80;62.30;;;;;;5023881;28;20635;-59
2022/03/11 10:11:23;;;;;;;3.28;1.60;;;16.90;62.10;;;;;;5023966;28;20045;-59
2022/03/11 10:13:53;;;;;;;3.85;2.00;;;17.10;61.90;;;;;;5026650;28;20026;-59
2022/03/11 10:16:25;;;;;;;4.65;1.92;;;17.10;61.70;;;;;;5022997;28;20112;-59
2022/03/11 10:18:59;;;;;;;4.90;1.90;;;17.10;61.70;;;;;;5026883;28;20105;-59
2022/03/11 10:21:35;;;;;;;2.97;1.50;;;17.10;61.50;;;;;;5023314;28;20067;-59
2022/03/11 10:24:01;;;;;;;3.67;1.60;;;17.00;61.60;;;;;;5020037;28;20055;-59
2022/03/11 10:26:51;;;;;;;3.03;1.20;;;17.00;62.50;;;;;;5027259;28;20114;-59
2022/03/11 10:29:17;;;;;;;3.58;1.30;;;17.00;61.50;;;;;;5023310;28;20667;-59
2022/03/11 10:31:45;;;;;;;2.58;1.27;;;17.00;61.60;;;;;;5023412;28;20500;-59
2022/03/11 10:34:15;;;;;;;2.90;1.35;;;16.90;61.60;;;;;;5022826;28;20029;-59
2022/03/11 10:37:03;;;;;;;3.75;1.55;;;16.90;61.70;;;;;;5022786;28;20038;-59
2022/03/11 10:39:33;;;;;;;2.38;1.30;;;16.90;61.80;;;;;;5026421;28;20499;-59
2022/03/11 10:42:20;;;;;;;2.70;1.35;;;16.90;61.60;;;;;;5025429;28;20029;-60
2022/03/11 10:44:59;;;;;;;3.78;1.42;;;16.90;61.70;;;;;;5024337;28;20046;-59
2022/03/11 10:47:29;;;;;;;2.53;1.33;;;17.00;61.70;;;;;;5020959;28;20501;-59
2022/03/11 10:49:57;;;;;;;3.80;1.40;;;17.00;61.60;;;;;;5026551;28;20068;-59
2022/03/11 10:52:40;;;;;;;3.88;1.30;;;17.00;61.50;;;;;;5021704;28;20490;-59
2022/03/11 10:55:19;;;;;;;3.15;1.40;;;17.00;61.50;;;;;;5026390;28;20025;-59
2022/03/11 10:57:45;;;;;;;3.10;1.20;;;17.00;61.60;;;;;;5021693;28;20059;-59
2022/03/11 11:00:19;;;;;;;3.70;1.20;;;17.00;61.60;;;;;;5022390;28;20697;-59
2022/03/11 11:02:45;;;;;;;3.03;1.23;;;17.00;61.40;;;;;;5016557;28;20029;-59
2022/03/11 11:05:12;;;;;;;3.38;1.33;;;17.10;61.50;;;;;;5015700;28;20095;-59
2022/03/11 11:07:40;;;;;;;1.73;1.15;;;17.10;61.50;;;;;;5029277;28;20029;-59
2022/03/11 11:10:06;;;;;;;2.22;1.38;;;17.10;61.60;;;;;;5028496;28;20379;-59
2022/03/11 11:12:31;;;;;;;3.15;1.40;;;17.10;61.40;;;;;;5020930;28;20029;-59
2022/03/11 11:14:57;;;;;;;3.13;1.30;;;17.10;61.40;;;;;;5013557;28;20352;-59
2022/03/11 11:17:23;;;;;;;3.08;1.40;;;17.10;61.50;;;;;;5059835;28;20037;-59
2022/03/11 11:19:48;;;;;;;4.10;1.63;;;17.10;61.20;;;;;;5013250;28;20014;-59
2022/03/11 11:22:22;;;;;;;2.45;1.20;;;17.20;61.30;;;;;;5026055;28;20033;-59
2022/03/11 11:24:49;;;;;;;3.15;1.20;;;17.10;61.40;;;;;;5022096;28;20050;-59
2022/03/11 11:27:22;;;;;;;5.93;1.48;;;17.20;61.70;;;;;;5018581;28;20037;-59
2022/03/11 11:29:48;;;;;;;3.47;1.20;;;17.20;61.60;;;;;;5065566;28;20075;-59
2022/03/11 11:32:14;;;;;;;3.95;1.50;;;17.20;61.50;;;;;;5030243;28;20418;-59
2022/03/11 11:34:39;;;;;;;3.35;1.30;;;17.30;61.50;;;;;;5014320;28;20085;-59
2022/03/11 11:37:13;;;;;;;4.70;1.30;;;17.30;61.40;;;;;;5020278;28;20097;-59
2022/03/11 11:39:42;;;;;;;4.97;1.50;;;17.30;61.30;;;;;;5021798;28;20030;-59
2022/03/11 11:42:22;;;;;;;3.65;1.40;;;17.30;61.30;;;;;;5019897;28;20045;-59
2022/03/11 11:44:55;;;;;;;5.97;1.48;;;17.30;61.20;;;;;;5019666;28;20076;-59
2022/03/11 11:47:22;;;;;;;6.15;1.40;;;17.30;61.00;;;;;;5015081;28;20436;-59
2022/03/11 11:49:49;;;;;;;5.57;1.65;;;17.40;61.60;;;;;;5030787;28;20478;-59
2022/03/11 11:52:30;;;;;;;6.82;1.60;;;17.40;62.70;;;;;;5018922;28;20060;-59
2022/03/11 11:55:17;;;;;;;5.55;1.77;;;17.40;62.10;;;;;;5019608;28;20030;-59
2022/03/11 11:57:43;;;;;;;6.18;1.45;;;17.40;62.10;;;;;;5022301;28;20053;-59
2022/03/11 12:00:36;;;;;;;5.55;1.80;;;17.50;62.10;;;;;;5027038;28;20018;-59
2022/03/11 12:03:02;;;;;;;6.15;1.60;;;17.60;62.10;;;;;;5019214;28;20449;-60
2022/03/11 12:05:50;;;;;;;5.10;1.52;;;17.60;61.90;;;;;;5026604;28;20041;-59
2022/03/11 12:08:34;;;;;;;5.40;1.48;;;17.60;61.80;;;;;;5016037;28;20049;-59
2022/03/11 12:10:59;;;;;;;3.80;1.50;;;17.50;61.90;;;;;;5014670;28;20559;-59
2022/03/11 12:13:35;;;;;;;5.55;1.67;;;17.50;61.90;;;;;;5017793;28;20038;-59
2022/03/11 12:16:15;;;;;;;7.10;1.60;;;17.50;61.90;;;;;;5019130;28;20061;-59
2022/03/11 12:18:45;;;;;;;6.85;1.70;;;17.50;61.80;;;;;;5018834;28;20438;-60
2022/03/11 12:21:29;;;;;;;7.97;1.75;;;17.50;61.80;;;;;;5014615;28;20032;-60
2022/03/11 12:23:55;;;;;;;5.93;1.70;;;17.50;61.70;;;;;;5050481;28;20025;-59
2022/03/11 12:26:41;;;;;;;5.88;1.63;;;17.50;61.70;;;;;;5016302;28;20048;-59
2022/03/11 12:29:29;;;;;;;4.72;1.40;;;17.40;61.50;;;;;;5013538;28;20017;-59
2022/03/11 12:31:56;;;;;;;5.38;1.50;;;17.50;61.50;;;;;;5028310;28;20048;-59
2022/03/11 12:34:22;;;;;;;5.70;1.40;;;17.50;61.40;;;;;;5016498;28;20099;-60
2022/03/11 12:36:48;;;;;;;5.07;1.50;;;17.50;61.30;;;;;;5022191;28;20108;-59
2022/03/11 12:39:13;;;;;;;4.70;1.50;;;17.60;61.20;;;;;;5056879;28;20105;-60
2022/03/11 12:41:42;;;;;;;9.23;1.60;;;17.70;61.00;;;;;;5012923;28;20077;-59
2022/03/11 12:44:10;;;;;;;5.40;1.40;;;17.80;60.90;;;;;;5045192;28;20035;-59
2022/03/11 12:46:36;;;;;;;6.53;1.33;;;17.80;60.80;;;;;;5026545;28;20502;-59
2022/03/11 12:49:02;;;;;;;3.85;1.42;;;17.80;60.80;;;;;;5017653;28;20117;-59